Decoded Metar for KIEN (PINE RIDGE in SD, USA) (IATA:IEN) | Meteo·Mobile Aviation Weather
aviador You're here:

KIEN Decoded Metar

PINE RIDGE in SD, USA
Report Time2019-05-19 21:52:00
UTC Time2019-05-19 22:28:19
Flight Rules mvfr MVFR
Wind010° at 09 kt
W.Decomp.*RWY 30: 4.5 kt HW 7.8 kt RCW
RWY 06: 4.5 kt HW 7.8 kt LCW
Visibility9999 m
Phenomena:N/A
Clouds:Few 018 Hf
Overcast 025 Hf
Expected CloudBase > 2,000 ft AGL from Temp-Dew spread
Ceiling2,500 ft
Temp06°C (ISA -3)
Dew Point01°C (71% RH)
AAT0.9°C
QNH1017 hPa
Density Alt2,940 ft
Elevation3,274 ft
Report Wrong Elevation
Raw Report
KIEN 192152Z AUTO 01009KT 10SM FEW018 OVC025 06/01 A3004 RMK AO2
SLP188 T00610011=

Extra information for KIEN:More info

Metar Taf Metar & Taf Last 4 Metars F.Rules Stats Wind Profile Meteogram Temp Stats Airport Information Weather charts Add Link Nearby VenuesMetar ALERT Operation Metar Decoded Social comments

AIRNAV info for KIEN